sensor_id;sensor_type;location;lat;lon;timestamp;P1;durP1;ratioP1;P2;durP2;ratioP2
10473;SDS011;5284;50.446;7.904;2024-03-23T00:57:16;62.60;;;23.45;;
10473;SDS011;5284;50.446;7.904;2024-03-23T01:02:19;56.17;;;23.80;;
10473;SDS011;5284;50.446;7.904;2024-03-23T01:07:22;67.63;;;25.38;;
10473;SDS011;5284;50.446;7.904;2024-03-23T01:12:26;66.53;;;24.60;;
10473;SDS011;5284;50.446;7.904;2024-03-23T01:17:29;66.80;;;26.42;;
10473;SDS011;5284;50.446;7.904;2024-03-23T01:22:33;76.93;;;25.65;;
10473;SDS011;5284;50.446;7.904;2024-03-23T01:27:36;72.28;;;28.15;;
10473;SDS011;5284;50.446;7.904;2024-03-23T01:32:39;72.03;;;27.13;;
10473;SDS011;5284;50.446;7.904;2024-03-23T01:37:41;74.22;;;26.90;;
10473;SDS011;5284;50.446;7.904;2024-03-23T01:42:44;66.10;;;25.60;;
10473;SDS011;5284;50.446;7.904;2024-03-23T01:47:56;75.32;;;27.88;;
10473;SDS011;5284;50.446;7.904;2024-03-23T01:52:59;80.82;;;26.98;;
10473;SDS011;5284;50.446;7.904;2024-03-23T01:58:03;64.88;;;24.42;;
10473;SDS011;5284;50.446;7.904;2024-03-23T02:08:25;74.90;;;28.95;;
10473;SDS011;5284;50.446;7.904;2024-03-23T02:13:29;55.42;;;19.02;;
10473;SDS011;5284;50.446;7.904;2024-03-23T02:18:33;16.65;;;7.50;;
10473;SDS011;5284;50.446;7.904;2024-03-23T02:23:36;11.10;;;5.40;;
10473;SDS011;5284;50.446;7.904;2024-03-23T02:28:38;8.63;;;2.58;;
10473;SDS011;5284;50.446;7.904;2024-03-23T02:33:40;5.47;;;2.45;;
10473;SDS011;5284;50.446;7.904;2024-03-23T02:38:44;4.68;;;2.10;;
10473;SDS011;5284;50.446;7.904;2024-03-23T02:43:46;3.53;;;1.40;;
10473;SDS011;5284;50.446;7.904;2024-03-23T02:48:50;2.05;;;0.93;;
10473;SDS011;5284;50.446;7.904;2024-03-23T02:53:54;1.17;;;0.90;;
10473;SDS011;5284;50.446;7.904;2024-03-23T02:58:56;4.15;;;1.30;;
10473;SDS011;5284;50.446;7.904;2024-03-23T03:03:58;2.72;;;1.27;;
10473;SDS011;5284;50.446;7.904;2024-03-23T03:09:01;3.33;;;1.55;;
10473;SDS011;5284;50.446;7.904;2024-03-23T03:14:06;5.25;;;1.63;;
10473;SDS011;5284;50.446;7.904;2024-03-23T03:19:08;3.25;;;1.30;;
10473;SDS011;5284;50.446;7.904;2024-03-23T03:24:12;3.13;;;1.52;;
10473;SDS011;5284;50.446;7.904;2024-03-23T03:29:15;4.45;;;1.77;;
10473;SDS011;5284;50.446;7.904;2024-03-23T03:34:19;5.80;;;1.23;;
10473;SDS011;5284;50.446;7.904;2024-03-23T03:39:23;8.90;;;1.95;;
10473;SDS011;5284;50.446;7.904;2024-03-23T03:44:25;4.00;;;1.85;;
10473;SDS011;5284;50.446;7.904;2024-03-23T03:49:28;4.70;;;2.17;;
10473;SDS011;5284;50.446;7.904;2024-03-23T03:54:31;4.63;;;1.92;;
10473;SDS011;5284;50.446;7.904;2024-03-23T03:59:34;5.88;;;2.75;;
10473;SDS011;5284;50.446;7.904;2024-03-23T04:04:37;5.25;;;2.90;;
10473;SDS011;5284;50.446;7.904;2024-03-23T04:09:41;7.55;;;2.50;;
10473;SDS011;5284;50.446;7.904;2024-03-23T04:14:44;6.93;;;2.97;;
10473;SDS011;5284;50.446;7.904;2024-03-23T04:19:47;8.35;;;3.40;;
10473;SDS011;5284;50.446;7.904;2024-03-23T04:24:58;6.18;;;3.35;;
10473;SDS011;5284;50.446;7.904;2024-03-23T04:30:01;6.13;;;2.60;;
10473;SDS011;5284;50.446;7.904;2024-03-23T04:35:05;7.43;;;2.88;;
10473;SDS011;5284;50.446;7.904;2024-03-23T04:40:11;4.15;;;1.98;;
10473;SDS011;5284;50.446;7.904;2024-03-23T04:45:14;7.03;;;1.73;;
10473;SDS011;5284;50.446;7.904;2024-03-23T04:50:16;3.35;;;1.65;;
10473;SDS011;5284;50.446;7.904;2024-03-23T04:55:20;3.15;;;1.85;;
10473;SDS011;5284;50.446;7.904;2024-03-23T05:00:23;4.97;;;2.05;;
10473;SDS011;5284;50.446;7.904;2024-03-23T05:05:26;2.65;;;1.50;;
10473;SDS011;5284;50.446;7.904;2024-03-23T05:10:30;1.63;;;1.15;;
10473;SDS011;5284;50.446;7.904;2024-03-23T05:15:33;5.95;;;1.50;;
10473;SDS011;5284;50.446;7.904;2024-03-23T05:20:35;5.00;;;1.10;;
10473;SDS011;5284;50.446;7.904;2024-03-23T05:25:40;9.32;;;1.95;;
10473;SDS011;5284;50.446;7.904;2024-03-23T05:30:42;4.95;;;1.40;;
10473;SDS011;5284;50.446;7.904;2024-03-23T05:35:44;4.30;;;2.22;;
10473;SDS011;5284;50.446;7.904;2024-03-23T05:40:53;8.80;;;1.60;;
10473;SDS011;5284;50.446;7.904;2024-03-23T05:45:56;10.98;;;1.95;;
10473;SDS011;5284;50.446;7.904;2024-03-23T05:50:58;4.13;;;1.52;;
10473;SDS011;5284;50.446;7.904;2024-03-23T05:56:02;6.13;;;1.92;;
10473;SDS011;5284;50.446;7.904;2024-03-23T06:01:05;14.98;;;3.45;;
10473;SDS011;5284;50.446;7.904;2024-03-23T06:06:07;6.50;;;2.13;;
10473;SDS011;5284;50.446;7.904;2024-03-23T06:11:13;5.72;;;2.20;;
10473;SDS011;5284;50.446;7.904;2024-03-23T06:16:15;21.17;;;2.30;;
10473;SDS011;5284;50.446;7.904;2024-03-23T06:21:19;3.67;;;1.98;;
10473;SDS011;5284;50.446;7.904;2024-03-23T06:26:25;15.13;;;2.85;;
10473;SDS011;5284;50.446;7.904;2024-03-23T06:31:28;9.32;;;3.33;;
10473;SDS011;5284;50.446;7.904;2024-03-23T06:36:30;8.45;;;3.40;;
10473;SDS011;5284;50.446;7.904;2024-03-23T06:41:33;21.40;;;4.63;;
10473;SDS011;5284;50.446;7.904;2024-03-23T06:46:37;20.13;;;5.72;;
10473;SDS011;5284;50.446;7.904;2024-03-23T06:51:38;13.70;;;7.57;;
10473;SDS011;5284;50.446;7.904;2024-03-23T06:56:42;19.83;;;6.47;;
10473;SDS011;5284;50.446;7.904;2024-03-23T07:01:45;21.40;;;7.45;;
10473;SDS011;5284;50.446;7.904;2024-03-23T07:06:47;22.75;;;6.22;;
10473;SDS011;5284;50.446;7.904;2024-03-23T07:11:51;30.85;;;9.15;;
10473;SDS011;5284;50.446;7.904;2024-03-23T07:16:55;22.20;;;8.13;;
10473;SDS011;5284;50.446;7.904;2024-03-23T07:21:57;28.05;;;7.68;;
10473;SDS011;5284;50.446;7.904;2024-03-23T07:27:01;22.55;;;6.70;;
10473;SDS011;5284;50.446;7.904;2024-03-23T07:32:04;17.48;;;5.60;;
10473;SDS011;5284;50.446;7.904;2024-03-23T07:37:07;34.75;;;8.90;;
10473;SDS011;5284;50.446;7.904;2024-03-23T07:42:10;28.98;;;5.03;;
10473;SDS011;5284;50.446;7.904;2024-03-23T07:47:13;10.93;;;3.08;;
10473;SDS011;5284;50.446;7.904;2024-03-23T07:52:16;24.08;;;4.22;;
10473;SDS011;5284;50.446;7.904;2024-03-23T07:57:20;31.25;;;6.03;;
10473;SDS011;5284;50.446;7.904;2024-03-23T08:02:22;23.52;;;4.10;;
10473;SDS011;5284;50.446;7.904;2024-03-23T08:07:24;24.02;;;6.97;;
10473;SDS011;5284;50.446;7.904;2024-03-23T08:12:28;24.13;;;5.65;;
10473;SDS011;5284;50.446;7.904;2024-03-23T08:17:31;16.73;;;6.28;;
10473;SDS011;5284;50.446;7.904;2024-03-23T08:22:32;27.10;;;4.63;;
10473;SDS011;5284;50.446;7.904;2024-03-23T08:27:36;29.35;;;5.15;;
10473;SDS011;5284;50.446;7.904;2024-03-23T08:32:40;29.02;;;7.40;;
10473;SDS011;5284;50.446;7.904;2024-03-23T08:37:42;22.98;;;5.60;;
10473;SDS011;5284;50.446;7.904;2024-03-23T08:42:45;16.98;;;4.60;;
10473;SDS011;5284;50.446;7.904;2024-03-23T08:47:48;15.82;;;4.70;;
10473;SDS011;5284;50.446;7.904;2024-03-23T08:52:50;23.63;;;3.42;;
10473;SDS011;5284;50.446;7.904;2024-03-23T08:57:55;27.10;;;4.25;;
10473;SDS011;5284;50.446;7.904;2024-03-23T09:02:57;5.93;;;3.00;;
10473;SDS011;5284;50.446;7.904;2024-03-23T09:07:59;16.33;;;3.55;;
10473;SDS011;5284;50.446;7.904;2024-03-23T09:13:03;17.85;;;3.85;;
10473;SDS011;5284;50.446;7.904;2024-03-23T09:18:05;13.95;;;3.33;;
10473;SDS011;5284;50.446;7.904;2024-03-23T09:23:07;12.93;;;2.90;;
10473;SDS011;5284;50.446;7.904;2024-03-23T09:28:10;18.20;;;2.60;;
10473;SDS011;5284;50.446;7.904;2024-03-23T09:33:13;5.85;;;1.48;;
10473;SDS011;5284;50.446;7.904;2024-03-23T09:38:15;12.25;;;1.83;;
10473;SDS011;5284;50.446;7.904;2024-03-23T09:43:18;15.75;;;2.40;;
10473;SDS011;5284;50.446;7.904;2024-03-23T09:48:22;8.48;;;2.00;;
10473;SDS011;5284;50.446;7.904;2024-03-23T09:53:25;10.50;;;2.75;;
10473;SDS011;5284;50.446;7.904;2024-03-23T09:58:28;14.25;;;2.05;;
10473;SDS011;5284;50.446;7.904;2024-03-23T10:03:33;16.73;;;2.63;;
10473;SDS011;5284;50.446;7.904;2024-03-23T10:08:45;12.70;;;2.50;;
10473;SDS011;5284;50.446;7.904;2024-03-23T10:13:48;10.32;;;2.88;;
10473;SDS011;5284;50.446;7.904;2024-03-23T10:18:52;16.83;;;2.75;;
10473;SDS011;5284;50.446;7.904;2024-03-23T10:23:54;10.38;;;2.35;;
10473;SDS011;5284;50.446;7.904;2024-03-23T10:28:58;10.15;;;3.20;;
10473;SDS011;5284;50.446;7.904;2024-03-23T10:34:02;9.80;;;2.72;;
10473;SDS011;5284;50.446;7.904;2024-03-23T10:39:04;18.98;;;3.42;;
10473;SDS011;5284;50.446;7.904;2024-03-23T10:44:10;12.77;;;2.40;;
10473;SDS011;5284;50.446;7.904;2024-03-23T10:49:13;10.18;;;2.00;;
10473;SDS011;5284;50.446;7.904;2024-03-23T10:54:15;12.95;;;3.00;;
10473;SDS011;5284;50.446;7.904;2024-03-23T10:59:19;9.43;;;3.20;;
10473;SDS011;5284;50.446;7.904;2024-03-23T11:04:29;7.68;;;1.83;;
10473;SDS011;5284;50.446;7.904;2024-03-23T11:09:38;12.27;;;1.90;;
10473;SDS011;5284;50.446;7.904;2024-03-23T11:14:43;3.95;;;2.00;;
10473;SDS011;5284;50.446;7.904;2024-03-23T11:19:47;8.10;;;1.65;;
10473;SDS011;5284;50.446;7.904;2024-03-23T11:24:55;10.15;;;2.47;;
10473;SDS011;5284;50.446;7.904;2024-03-23T11:30:10;6.00;;;2.42;;
10473;SDS011;5284;50.446;7.904;2024-03-23T11:35:26;5.63;;;1.87;;
10473;SDS011;5284;50.446;7.904;2024-03-23T11:40:29;7.18;;;1.75;;
10473;SDS011;5284;50.446;7.904;2024-03-23T11:45:37;0.95;;;0.45;;
10473;SDS011;5284;50.446;7.904;2024-03-23T11:50:40;11.00;;;0.60;;
10473;SDS011;5284;50.446;7.904;2024-03-23T11:55:48;3.00;;;0.93;;
10473;SDS011;5284;50.446;7.904;2024-03-23T12:00:52;4.17;;;1.57;;
10473;SDS011;5284;50.446;7.904;2024-03-23T12:05:59;2.53;;;1.25;;
10473;SDS011;5284;50.446;7.904;2024-03-23T12:11:04;3.00;;;0.77;;
10473;SDS011;5284;50.446;7.904;2024-03-23T12:16:10;3.40;;;0.70;;
10473;SDS011;5284;50.446;7.904;2024-03-23T12:21:14;3.38;;;1.20;;
10473;SDS011;5284;50.446;7.904;2024-03-23T12:26:17;0.50;;;0.50;;
10473;SDS011;5284;50.446;7.904;2024-03-23T12:31:20;1.65;;;0.60;;
10473;SDS011;5284;50.446;7.904;2024-03-23T12:36:22;2.00;;;1.10;;
10473;SDS011;5284;50.446;7.904;2024-03-23T12:41:24;2.72;;;1.15;;
10473;SDS011;5284;50.446;7.904;2024-03-23T12:46:28;5.10;;;1.23;;
10473;SDS011;5284;50.446;7.904;2024-03-23T12:51:33;2.53;;;1.15;;
10473;SDS011;5284;50.446;7.904;2024-03-23T12:56:35;1.48;;;0.85;;
10473;SDS011;5284;50.446;7.904;2024-03-23T13:01:39;4.18;;;0.90;;
10473;SDS011;5284;50.446;7.904;2024-03-23T13:06:40;1.27;;;0.75;;
10473;SDS011;5284;50.446;7.904;2024-03-23T13:11:43;2.38;;;1.05;;
10473;SDS011;5284;50.446;7.904;2024-03-23T13:16:46;4.88;;;1.73;;
10473;SDS011;5284;50.446;7.904;2024-03-23T13:21:48;3.00;;;0.90;;
10473;SDS011;5284;50.446;7.904;2024-03-23T13:26:50;2.00;;;0.70;;
10473;SDS011;5284;50.446;7.904;2024-03-23T13:31:54;0.80;;;0.70;;
10473;SDS011;5284;50.446;7.904;2024-03-23T13:36:56;1.60;;;0.90;;
10473;SDS011;5284;50.446;7.904;2024-03-23T13:41:59;3.70;;;1.27;;
10473;SDS011;5284;50.446;7.904;2024-03-23T13:47:05;1.42;;;0.93;;
10473;SDS011;5284;50.446;7.904;2024-03-23T13:52:07;3.45;;;0.95;;
10473;SDS011;5284;50.446;7.904;2024-03-23T13:57:09;5.85;;;1.08;;
10473;SDS011;5284;50.446;7.904;2024-03-23T14:02:13;2.28;;;0.68;;
10473;SDS011;5284;50.446;7.904;2024-03-23T14:07:16;5.75;;;1.15;;
10473;SDS011;5284;50.446;7.904;2024-03-23T14:12:19;4.32;;;0.80;;
10473;SDS011;5284;50.446;7.904;2024-03-23T14:17:24;3.83;;;1.17;;
10473;SDS011;5284;50.446;7.904;2024-03-23T14:22:28;2.65;;;1.17;;
10473;SDS011;5284;50.446;7.904;2024-03-23T14:27:30;5.65;;;1.33;;
10473;SDS011;5284;50.446;7.904;2024-03-23T14:32:33;10.13;;;1.25;;
10473;SDS011;5284;50.446;7.904;2024-03-23T14:37:36;2.65;;;0.93;;
10473;SDS011;5284;50.446;7.904;2024-03-23T14:42:39;6.15;;;1.80;;
10473;SDS011;5284;50.446;7.904;2024-03-23T14:47:43;9.10;;;1.17;;
10473;SDS011;5284;50.446;7.904;2024-03-23T14:52:46;2.65;;;1.17;;
10473;SDS011;5284;50.446;7.904;2024-03-23T14:57:48;5.10;;;1.50;;
10473;SDS011;5284;50.446;7.904;2024-03-23T15:02:53;3.92;;;1.02;;
10473;SDS011;5284;50.446;7.904;2024-03-23T15:07:56;5.85;;;1.02;;
10473;SDS011;5284;50.446;7.904;2024-03-23T15:13:00;7.25;;;0.98;;
10473;SDS011;5284;50.446;7.904;2024-03-23T15:18:04;4.78;;;0.73;;
10473;SDS011;5284;50.446;7.904;2024-03-23T15:23:07;6.70;;;1.40;;
10473;SDS011;5284;50.446;7.904;2024-03-23T15:28:10;33.53;;;16.83;;
10473;SDS011;5284;50.446;7.904;2024-03-23T15:33:13;2.40;;;1.42;;
10473;SDS011;5284;50.446;7.904;2024-03-23T15:38:17;8.68;;;1.33;;
10473;SDS011;5284;50.446;7.904;2024-03-23T15:43:19;4.13;;;0.82;;
10473;SDS011;5284;50.446;7.904;2024-03-23T15:48:23;5.60;;;1.00;;
10473;SDS011;5284;50.446;7.904;2024-03-23T15:53:27;3.17;;;1.33;;
10473;SDS011;5284;50.446;7.904;2024-03-23T15:58:30;5.78;;;2.58;;
10473;SDS011;5284;50.446;7.904;2024-03-23T16:03:34;14.52;;;2.03;;
10473;SDS011;5284;50.446;7.904;2024-03-23T16:08:37;4.15;;;2.10;;
10473;SDS011;5284;50.446;7.904;2024-03-23T16:13:39;12.57;;;2.00;;
10473;SDS011;5284;50.446;7.904;2024-03-23T16:18:45;3.20;;;1.30;;
10473;SDS011;5284;50.446;7.904;2024-03-23T16:23:47;2.38;;;1.35;;
10473;SDS011;5284;50.446;7.904;2024-03-23T16:28:49;3.47;;;1.48;;
10473;SDS011;5284;50.446;7.904;2024-03-23T16:33:52;5.93;;;1.58;;
10473;SDS011;5284;50.446;7.904;2024-03-23T16:38:54;5.28;;;1.63;;
10473;SDS011;5284;50.446;7.904;2024-03-23T16:43:56;13.18;;;2.83;;
10473;SDS011;5284;50.446;7.904;2024-03-23T16:49:00;6.28;;;2.33;;
10473;SDS011;5284;50.446;7.904;2024-03-23T16:54:03;3.97;;;0.80;;
10473;SDS011;5284;50.446;7.904;2024-03-23T16:59:06;3.80;;;1.88;;
10473;SDS011;5284;50.446;7.904;2024-03-23T17:04:09;3.78;;;1.27;;
10473;SDS011;5284;50.446;7.904;2024-03-23T17:09:12;5.63;;;1.02;;
10473;SDS011;5284;50.446;7.904;2024-03-23T17:14:14;6.07;;;3.30;;
10473;SDS011;5284;50.446;7.904;2024-03-23T17:19:17;6.28;;;3.78;;
10473;SDS011;5284;50.446;7.904;2024-03-23T17:24:20;22.88;;;8.15;;
10473;SDS011;5284;50.446;7.904;2024-03-23T17:29:23;3.20;;;1.23;;
10473;SDS011;5284;50.446;7.904;2024-03-23T17:34:26;7.10;;;1.65;;
10473;SDS011;5284;50.446;7.904;2024-03-23T17:39:30;4.25;;;1.27;;
10473;SDS011;5284;50.446;7.904;2024-03-23T17:44:33;4.85;;;2.53;;
10473;SDS011;5284;50.446;7.904;2024-03-23T17:49:36;5.43;;;2.55;;
10473;SDS011;5284;50.446;7.904;2024-03-23T17:54:38;4.20;;;2.70;;
10473;SDS011;5284;50.446;7.904;2024-03-23T17:59:42;5.95;;;2.83;;
10473;SDS011;5284;50.446;7.904;2024-03-23T18:04:45;2.65;;;1.42;;
10473;SDS011;5284;50.446;7.904;2024-03-23T18:09:48;8.48;;;1.40;;
10473;SDS011;5284;50.446;7.904;2024-03-23T18:14:50;5.32;;;2.67;;
10473;SDS011;5284;50.446;7.904;2024-03-23T18:19:56;19.60;;;6.00;;
10473;SDS011;5284;50.446;7.904;2024-03-23T18:24:57;10.68;;;3.30;;
10473;SDS011;5284;50.446;7.904;2024-03-23T18:30:00;6.68;;;3.03;;
10473;SDS011;5284;50.446;7.904;2024-03-23T18:35:04;8.75;;;3.35;;
10473;SDS011;5284;50.446;7.904;2024-03-23T18:40:09;5.50;;;1.60;;
10473;SDS011;5284;50.446;7.904;2024-03-23T18:45:12;9.30;;;2.08;;
10473;SDS011;5284;50.446;7.904;2024-03-23T18:50:15;5.82;;;2.42;;
10473;SDS011;5284;50.446;7.904;2024-03-23T18:55:18;8.73;;;2.58;;
10473;SDS011;5284;50.446;7.904;2024-03-23T19:00:21;1.92;;;0.98;;
10473;SDS011;5284;50.446;7.904;2024-03-23T19:05:25;11.73;;;2.20;;
10473;SDS011;5284;50.446;7.904;2024-03-23T19:10:28;3.70;;;1.55;;
10473;SDS011;5284;50.446;7.904;2024-03-23T19:15:30;3.30;;;1.23;;
10473;SDS011;5284;50.446;7.904;2024-03-23T19:20:33;8.85;;;1.75;;
10473;SDS011;5284;50.446;7.904;2024-03-23T19:25:35;3.55;;;1.60;;
10473;SDS011;5284;50.446;7.904;2024-03-23T19:30:37;3.85;;;2.13;;
10473;SDS011;5284;50.446;7.904;2024-03-23T19:35:41;4.32;;;2.60;;
10473;SDS011;5284;50.446;7.904;2024-03-23T19:40:45;1.90;;;1.67;;
10473;SDS011;5284;50.446;7.904;2024-03-23T19:45:53;3.92;;;2.10;;
10473;SDS011;5284;50.446;7.904;2024-03-23T19:50:57;6.70;;;2.53;;
10473;SDS011;5284;50.446;7.904;2024-03-23T19:55:59;5.07;;;2.08;;
10473;SDS011;5284;50.446;7.904;2024-03-23T20:01:04;11.93;;;2.95;;
10473;SDS011;5284;50.446;7.904;2024-03-23T20:06:15;5.63;;;2.13;;
10473;SDS011;5284;50.446;7.904;2024-03-23T20:11:22;9.35;;;3.65;;
10473;SDS011;5284;50.446;7.904;2024-03-23T20:16:25;8.95;;;3.92;;
10473;SDS011;5284;50.446;7.904;2024-03-23T20:21:29;11.63;;;1.88;;
10473;SDS011;5284;50.446;7.904;2024-03-23T20:26:30;10.70;;;3.55;;
10473;SDS011;5284;50.446;7.904;2024-03-23T20:31:34;8.43;;;3.03;;
10473;SDS011;5284;50.446;7.904;2024-03-23T20:36:38;10.77;;;3.10;;
10473;SDS011;5284;50.446;7.904;2024-03-23T20:41:41;5.07;;;2.75;;
10473;SDS011;5284;50.446;7.904;2024-03-23T20:46:43;10.18;;;2.35;;
10473;SDS011;5284;50.446;7.904;2024-03-23T20:51:47;3.03;;;1.23;;
10473;SDS011;5284;50.446;7.904;2024-03-23T20:56:49;3.50;;;2.00;;
10473;SDS011;5284;50.446;7.904;2024-03-23T21:01:51;2.35;;;1.45;;
10473;SDS011;5284;50.446;7.904;2024-03-23T21:06:55;2.92;;;1.00;;
10473;SDS011;5284;50.446;7.904;2024-03-23T21:11:58;5.13;;;1.55;;
10473;SDS011;5284;50.446;7.904;2024-03-23T21:17:00;1.20;;;0.63;;
10473;SDS011;5284;50.446;7.904;2024-03-23T21:22:04;2.42;;;1.10;;
10473;SDS011;5284;50.446;7.904;2024-03-23T21:27:07;4.15;;;2.30;;
10473;SDS011;5284;50.446;7.904;2024-03-23T21:32:09;1.48;;;1.02;;
10473;SDS011;5284;50.446;7.904;2024-03-23T21:37:12;1.92;;;0.98;;
10473;SDS011;5284;50.446;7.904;2024-03-23T21:42:14;1.45;;;0.90;;
10473;SDS011;5284;50.446;7.904;2024-03-23T21:47:16;2.22;;;0.90;;
10473;SDS011;5284;50.446;7.904;2024-03-23T21:52:20;9.48;;;1.35;;
10473;SDS011;5284;50.446;7.904;2024-03-23T21:57:24;4.35;;;1.10;;
10473;SDS011;5284;50.446;7.904;2024-03-23T22:02:27;2.17;;;1.33;;
10473;SDS011;5284;50.446;7.904;2024-03-23T22:07:31;6.97;;;2.10;;
10473;SDS011;5284;50.446;7.904;2024-03-23T22:12:33;7.43;;;1.67;;
10473;SDS011;5284;50.446;7.904;2024-03-23T22:17:35;1.45;;;1.02;;
10473;SDS011;5284;50.446;7.904;2024-03-23T22:22:38;1.50;;;1.00;;
10473;SDS011;5284;50.446;7.904;2024-03-23T22:27:40;2.88;;;1.17;;
10473;SDS011;5284;50.446;7.904;2024-03-23T22:32:43;13.07;;;2.65;;
10473;SDS011;5284;50.446;7.904;2024-03-23T22:37:47;1.33;;;0.90;;
10473;SDS011;5284;50.446;7.904;2024-03-23T22:42:49;5.18;;;1.70;;
10473;SDS011;5284;50.446;7.904;2024-03-23T22:47:51;5.63;;;1.10;;
10473;SDS011;5284;50.446;7.904;2024-03-23T22:52:54;4.10;;;2.10;;
10473;SDS011;5284;50.446;7.904;2024-03-23T22:57:56;5.15;;;1.65;;
10473;SDS011;5284;50.446;7.904;2024-03-23T23:02:58;4.10;;;1.98;;
10473;SDS011;5284;50.446;7.904;2024-03-23T23:08:02;3.78;;;2.33;;
10473;SDS011;5284;50.446;7.904;2024-03-23T23:13:05;2.97;;;1.85;;
10473;SDS011;5284;50.446;7.904;2024-03-23T23:18:07;8.07;;;3.08;;
10473;SDS011;5284;50.446;7.904;2024-03-23T23:23:12;2.63;;;1.77;;
10473;SDS011;5284;50.446;7.904;2024-03-23T23:28:14;4.57;;;2.40;;
10473;SDS011;5284;50.446;7.904;2024-03-23T23:33:16;11.90;;;2.47;;
10473;SDS011;5284;50.446;7.904;2024-03-23T23:38:20;8.80;;;1.40;;
10473;SDS011;5284;50.446;7.904;2024-03-23T23:43:24;8.02;;;1.73;;
10473;SDS011;5284;50.446;7.904;2024-03-23T23:48:26;5.60;;;1.38;;
10473;SDS011;5284;50.446;7.904;2024-03-23T23:53:29;6.53;;;1.33;;
10473;SDS011;5284;50.446;7.904;2024-03-23T23:58:32;2.20;;;0.98;;
